METAR Data
IDs: Format: Raw Decoded Include TAF

Data at: 1701 UTC 30 Oct 2020

METAR for:K6B9 (Skaneateles Arpt, NY, US)
Text:K6B9 301655Z AUTO 34007G16KT 300V020 10SM SCT027 SCT031 03/M03 A3002 RMK AO2
Temperature: 3.0°C ( 37°F)
Dewpoint: -3.0°C ( 27°F) [RH = 65%]
Pressure (altimeter):30.02 inches Hg (1016.7 mb)
Winds:from the NNW (340 degrees) at 8 MPH (7 knots; 3.6 m/s) gusting to 18 MPH (16 knots; 8.2 m/s)
Visibility:10 or more sm (16+ km)
Ceiling:at least 12,000 feet AGL
Clouds: scattered clouds at 2700 feet AGL, scattered clouds at 3100 feet AGL
QC Flag:automated observation with no human augmentation
Text:K6B9 301635Z AUTO VRB06G15KT 10SM SCT027 04/M02 A3001 RMK AO2
Temperature: 4.0°C ( 39°F)
Dewpoint: -2.0°C ( 28°F) [RH = 65%]
Pressure (altimeter):30.01 inches Hg (1016.3 mb)
Winds:variable direction winds at 7 MPH (6 knots; 3.1 m/s) gusting to 17 MPH (15 knots; 7.7 m/s)
Visibility:10 or more sm (16+ km)
Ceiling:at least 12,000 feet AGL
Clouds: scattered clouds at 2700 feet AGL
QC Flag:automated observation with no human augmentation
Text:K6B9 301615Z AUTO VRB04G14KT 10SM FEW023 03/M01 A3000 RMK AO2
Temperature: 3.0°C ( 37°F)
Dewpoint: -1.0°C ( 30°F) [RH = 75%]
Pressure (altimeter):30.00 inches Hg (1016.0 mb)
Winds:variable direction winds at 5 MPH (4 knots; 2.1 m/s) gusting to 16 MPH (14 knots; 7.2 m/s)
Visibility:10 or more sm (16+ km)
Ceiling:at least 12,000 feet AGL
Clouds: few clouds at 2300 feet AGL
QC Flag:automated observation with no human augmentation
Text:K6B9 301555Z AUTO VRB05G11KT 10SM FEW017 02/M02 A2999 RMK AO2
Temperature: 2.0°C ( 36°F)
Dewpoint: -2.0°C ( 28°F) [RH = 75%]
Pressure (altimeter):29.99 inches Hg (1015.7 mb)
Winds:variable direction winds at 6 MPH (5 knots; 2.6 m/s) gusting to 13 MPH (11 knots; 5.7 m/s)
Visibility:10 or more sm (16+ km)
Ceiling:at least 12,000 feet AGL
Clouds: few clouds at 1700 feet AGL
QC Flag:automated observation with no human augmentation
Text:K6B9 301535Z AUTO 35007KT 10SM FEW017 02/M02 A2999 RMK AO2
Temperature: 2.0°C ( 36°F)
Dewpoint: -2.0°C ( 28°F) [RH = 75%]
Pressure (altimeter):29.99 inches Hg (1015.7 mb)
Winds:from the N (350 degrees) at 8 MPH (7 knots; 3.6 m/s)
Visibility:10 or more sm (16+ km)
Ceiling:at least 12,000 feet AGL
Clouds: few clouds at 1700 feet AGL
QC Flag:automated observation with no human augmentation
Text:K6B9 301515Z AUTO VRB05KT 10SM SCT015 SCT075 02/M01 A2998 RMK AO2
Temperature: 2.0°C ( 36°F)
Dewpoint: -1.0°C ( 30°F) [RH = 80%]
Pressure (altimeter):29.98 inches Hg (1015.3 mb)
Winds:variable direction winds at 6 MPH (5 knots; 2.6 m/s)
Visibility:10 or more sm (16+ km)
Ceiling:at least 12,000 feet AGL
Clouds: scattered clouds at 1500 feet AGL, scattered clouds at 7500 feet AGL
QC Flag:automated observation with no human augmentation
Text:K6B9 301455Z AUTO VRB05KT 10SM BKN016 OVC075 01/M01 A2997 RMK AO2
Temperature: 1.0°C ( 34°F)
Dewpoint: -1.0°C ( 30°F) [RH = 86%]
Pressure (altimeter):29.97 inches Hg (1015.0 mb)
Winds:variable direction winds at 6 MPH (5 knots; 2.6 m/s)
Visibility:10 or more sm (16+ km)
Ceiling:1600 feet AGL
Clouds: broken clouds at 1600 feet AGL, overcast cloud deck at 7500 feet AGL
QC Flag:automated observation with no human augmentation
Text:K6B9 301435Z AUTO VRB03KT 10SM OVC018 01/M01 A2997 RMK AO2
Temperature: 1.0°C ( 34°F)
Dewpoint: -1.0°C ( 30°F) [RH = 86%]
Pressure (altimeter):29.97 inches Hg (1015.0 mb)
Winds:variable direction winds at 3 MPH (3 knots; 1.5 m/s)
Visibility:10 or more sm (16+ km)
Ceiling:1800 feet AGL
Clouds: overcast cloud deck at 1800 feet AGL
QC Flag:automated observation with no human augmentation
Text:K6B9 301415Z AUTO 01005KT 10SM OVC017 01/M01 A2997 RMK AO2
Temperature: 1.0°C ( 34°F)
Dewpoint: -1.0°C ( 30°F) [RH = 86%]
Pressure (altimeter):29.97 inches Hg (1015.0 mb)
Winds:from the N (10 degrees) at 6 MPH (5 knots; 2.6 m/s)
Visibility:10 or more sm (16+ km)
Ceiling:1700 feet AGL
Clouds: overcast cloud deck at 1700 feet AGL
QC Flag:automated observation with no human augmentation
Text:K6B9 301355Z AUTO VRB06KT 10SM OVC015 01/M01 A2995 RMK AO2
Temperature: 1.0°C ( 34°F)
Dewpoint: -1.0°C ( 30°F) [RH = 86%]
Pressure (altimeter):29.95 inches Hg (1014.3 mb)
Winds:variable direction winds at 7 MPH (6 knots; 3.1 m/s)
Visibility:10 or more sm (16+ km)
Ceiling:1500 feet AGL
Clouds: overcast cloud deck at 1500 feet AGL
QC Flag:automated observation with no human augmentation
Text:K6B9 301335Z AUTO VRB06KT 10SM OVC015 00/M01 A2995 RMK AO2
Temperature: 0.0°C ( 32°F)
Dewpoint: -1.0°C ( 30°F) [RH = 93%]
Pressure (altimeter):29.95 inches Hg (1014.3 mb)
Winds:variable direction winds at 7 MPH (6 knots; 3.1 m/s)
Visibility:10 or more sm (16+ km)
Ceiling:1500 feet AGL
Clouds: overcast cloud deck at 1500 feet AGL
QC Flag:automated observation with no human augmentation
Text:K6B9 301315Z AUTO 34007KT 310V010 10SM OVC016 01/M01 A2994 RMK AO2
Temperature: 1.0°C ( 34°F)
Dewpoint: -1.0°C ( 30°F) [RH = 86%]
Pressure (altimeter):29.94 inches Hg (1014.0 mb)
Winds:from the NNW (340 degrees) at 8 MPH (7 knots; 3.6 m/s)
Visibility:10 or more sm (16+ km)
Ceiling:1600 feet AGL
Clouds: overcast cloud deck at 1600 feet AGL
QC Flag:automated observation with no human augmentation
Text:K6B9 301255Z AUTO 36008KT 10SM FEW011 OVC017 01/M00 A2993 RMK AO2
Temperature: 1.0°C ( 34°F)
Dewpoint: 0.0°C ( 32°F) [RH = 93%]
Pressure (altimeter):29.93 inches Hg (1013.6 mb)
Winds:from the N (360 degrees) at 9 MPH (8 knots; 4.1 m/s)
Visibility:10 or more sm (16+ km)
Ceiling:1700 feet AGL
Clouds: few clouds at 1100 feet AGL, overcast cloud deck at 1700 feet AGL
QC Flag:automated observation with no human augmentation
Text:K6B9 301235Z AUTO VRB06KT 10SM OVC015 01/M00 A2992 RMK AO2
Temperature: 1.0°C ( 34°F)
Dewpoint: 0.0°C ( 32°F) [RH = 93%]
Pressure (altimeter):29.92 inches Hg (1013.3 mb)
Winds:variable direction winds at 7 MPH (6 knots; 3.1 m/s)
Visibility:10 or more sm (16+ km)
Ceiling:1500 feet AGL
Clouds: overcast cloud deck at 1500 feet AGL
QC Flag:automated observation with no human augmentation
Text:K6B9 301215Z AUTO 35004G10KT 10SM OVC017 01/00 A2991 RMK AO2
Temperature: 1.0°C ( 34°F)
Dewpoint: 0.0°C ( 32°F) [RH = 93%]
Pressure (altimeter):29.91 inches Hg (1013.0 mb)
Winds:from the N (350 degrees) at 5 MPH (4 knots; 2.1 m/s) gusting to 12 MPH (10 knots; 5.1 m/s)
Visibility:10 or more sm (16+ km)
Ceiling:1700 feet AGL
Clouds: overcast cloud deck at 1700 feet AGL
QC Flag:automated observation with no human augmentation
Text:K6B9 301155Z AUTO VRB05G10KT 10SM OVC016 01/00 A2990 RMK AO2
Temperature: 1.0°C ( 34°F)
Dewpoint: 0.0°C ( 32°F) [RH = 93%]
Pressure (altimeter):29.90 inches Hg (1012.6 mb)
Winds:variable direction winds at 6 MPH (5 knots; 2.6 m/s) gusting to 12 MPH (10 knots; 5.1 m/s)
Visibility:10 or more sm (16+ km)
Ceiling:1600 feet AGL
Clouds: overcast cloud deck at 1600 feet AGL
QC Flag:automated observation with no human augmentation
Text:K6B9 301135Z AUTO VRB05KT 10SM OVC015 01/00 A2988 RMK AO2
Temperature: 1.0°C ( 34°F)
Dewpoint: 0.0°C ( 32°F) [RH = 93%]
Pressure (altimeter):29.88 inches Hg (1011.9 mb)
Winds:variable direction winds at 6 MPH (5 knots; 2.6 m/s)
Visibility:10 or more sm (16+ km)
Ceiling:1500 feet AGL
Clouds: overcast cloud deck at 1500 feet AGL
QC Flag:automated observation with no human augmentation
Text:K6B9 301115Z AUTO 36004KT 10SM OVC015 01/00 A2988 RMK AO2
Temperature: 1.0°C ( 34°F)
Dewpoint: 0.0°C ( 32°F) [RH = 93%]
Pressure (altimeter):29.88 inches Hg (1011.9 mb)
Winds:from the N (360 degrees) at 5 MPH (4 knots; 2.1 m/s)
Visibility:10 or more sm (16+ km)
Ceiling:1500 feet AGL
Clouds: overcast cloud deck at 1500 feet AGL
QC Flag:automated observation with no human augmentation
Text:K6B9 301055Z AUTO 36006KT 10SM OVC014 01/01 A2987 RMK AO2
Temperature: 1.0°C ( 34°F)
Dewpoint: 1.0°C ( 34°F) [RH = 100%]
Pressure (altimeter):29.87 inches Hg (1011.6 mb)
Winds:from the N (360 degrees) at 7 MPH (6 knots; 3.1 m/s)
Visibility:10 or more sm (16+ km)
Ceiling:1400 feet AGL
Clouds: overcast cloud deck at 1400 feet AGL
QC Flag:automated observation with no human augmentation
Text:K6B9 301035Z AUTO 36007KT 10SM OVC013 02/01 A2987 RMK AO2
Temperature: 2.0°C ( 36°F)
Dewpoint: 1.0°C ( 34°F) [RH = 93%]
Pressure (altimeter):29.87 inches Hg (1011.6 mb)
Winds:from the N (360 degrees) at 8 MPH (7 knots; 3.6 m/s)
Visibility:10 or more sm (16+ km)
Ceiling:1300 feet AGL
Clouds: overcast cloud deck at 1300 feet AGL
QC Flag:automated observation with no human augmentation
Text:K6B9 301015Z AUTO 36007KT 10SM OVC012 02/01 A2986 RMK AO2
Temperature: 2.0°C ( 36°F)
Dewpoint: 1.0°C ( 34°F) [RH = 93%]
Pressure (altimeter):29.86 inches Hg (1011.3 mb)
Winds:from the N (360 degrees) at 8 MPH (7 knots; 3.6 m/s)
Visibility:10 or more sm (16+ km)
Ceiling:1200 feet AGL
Clouds: overcast cloud deck at 1200 feet AGL
QC Flag:automated observation with no human augmentation
Text:K6B9 300955Z AUTO 36006KT 10SM OVC008 02/02 A2985 RMK AO2
Temperature: 2.0°C ( 36°F)
Dewpoint: 2.0°C ( 36°F) [RH = 100%]
Pressure (altimeter):29.85 inches Hg (1010.9 mb)
Winds:from the N (360 degrees) at 7 MPH (6 knots; 3.1 m/s)
Visibility:10 or more sm (16+ km)
Ceiling:800 feet AGL
Clouds: overcast cloud deck at 800 feet AGL
QC Flag:automated observation with no human augmentation
Text:K6B9 300935Z AUTO VRB06KT 8SM -RA 02/02 A2985 RMK AO2
Temperature: 2.0°C ( 36°F)
Dewpoint: 2.0°C ( 36°F) [RH = 100%]
Pressure (altimeter):29.85 inches Hg (1010.9 mb)
Winds:variable direction winds at 7 MPH (6 knots; 3.1 m/s)
Visibility: 8 sm ( 13 km)
Weather:-RA (light rain)
QC Flag:automated observation with no human augmentation
Text:K6B9 300915Z AUTO 01007KT 9SM -RA OVC008 02/02 A2984 RMK AO2
Temperature: 2.0°C ( 36°F)
Dewpoint: 2.0°C ( 36°F) [RH = 100%]
Pressure (altimeter):29.84 inches Hg (1010.6 mb)
Winds:from the N (10 degrees) at 8 MPH (7 knots; 3.6 m/s)
Visibility: 9 sm ( 14 km)
Ceiling:800 feet AGL
Clouds: overcast cloud deck at 800 feet AGL
Weather:-RA (light rain)
QC Flag:automated observation with no human augmentation
Text:K6B9 300855Z AUTO VRB06KT 9SM OVC009 03/02 A2983 RMK AO2
Temperature: 3.0°C ( 37°F)
Dewpoint: 2.0°C ( 36°F) [RH = 93%]
Pressure (altimeter):29.83 inches Hg (1010.2 mb)
Winds:variable direction winds at 7 MPH (6 knots; 3.1 m/s)
Visibility: 9 sm ( 14 km)
Ceiling:900 feet AGL
Clouds: overcast cloud deck at 900 feet AGL
QC Flag:automated observation with no human augmentation
Text:K6B9 300835Z AUTO 01007KT 10SM BKN007 OVC010 03/03 A2982 RMK AO2
Temperature: 3.0°C ( 37°F)
Dewpoint: 3.0°C ( 37°F) [RH = 100%]
Pressure (altimeter):29.82 inches Hg (1009.9 mb)
Winds:from the N (10 degrees) at 8 MPH (7 knots; 3.6 m/s)
Visibility:10 or more sm (16+ km)
Ceiling:700 feet AGL
Clouds: broken clouds at 700 feet AGL, overcast cloud deck at 1000 feet AGL
QC Flag:automated observation with no human augmentation
Text:K6B9 300815Z AUTO 02006KT 7SM OVC007 03/03 A2983 RMK AO2
Temperature: 3.0°C ( 37°F)
Dewpoint: 3.0°C ( 37°F) [RH = 100%]
Pressure (altimeter):29.83 inches Hg (1010.2 mb)
Winds:from the NNE (20 degrees) at 7 MPH (6 knots; 3.1 m/s)
Visibility: 7 sm ( 11 km)
Ceiling:700 feet AGL
Clouds: overcast cloud deck at 700 feet AGL
QC Flag:automated observation with no human augmentation
Text:K6B9 300755Z AUTO 02008G13KT 5SM BR 03/03 A2982 RMK AO2 P0001
Temperature: 3.0°C ( 37°F)
Dewpoint: 3.0°C ( 37°F) [RH = 100%]
Pressure (altimeter):29.82 inches Hg (1009.9 mb)
Winds:from the NNE (20 degrees) at 9 MPH (8 knots; 4.1 m/s) gusting to 15 MPH (13 knots; 6.7 m/s)
Visibility: 5 sm ( 8 km)
Weather:BR (mist)
QC Flag:automated observation with no human augmentation
Text:K6B9 300735Z AUTO 03009KT 350V050 3SM BR 03/03 A2980 RMK AO2
Temperature: 3.0°C ( 37°F)
Dewpoint: 3.0°C ( 37°F) [RH = 100%]
Pressure (altimeter):29.80 inches Hg (1009.2 mb)
Winds:from the NNE (30 degrees) at 10 MPH (9 knots; 4.6 m/s)
Visibility: 3 sm ( 5 km)
Weather:BR (mist)
QC Flag:automated observation with no human augmentation
Text:K6B9 300715Z AUTO 02008KT 7SM -RA OVC006 03/03 A2979 RMK AO2
Temperature: 3.0°C ( 37°F)
Dewpoint: 3.0°C ( 37°F) [RH = 100%]
Pressure (altimeter):29.79 inches Hg (1008.9 mb)
Winds:from the NNE (20 degrees) at 9 MPH (8 knots; 4.1 m/s)
Visibility: 7 sm ( 11 km)
Ceiling:600 feet AGL
Clouds: overcast cloud deck at 600 feet AGL
Weather:-RA (light rain)
QC Flag:automated observation with no human augmentation
Text:K6B9 300655Z AUTO 02007KT 360V060 6SM -RA 03/03 A2980 RMK AO2 P0005
Temperature: 3.0°C ( 37°F)
Dewpoint: 3.0°C ( 37°F) [RH = 100%]
Pressure (altimeter):29.80 inches Hg (1009.2 mb)
Winds:from the NNE (20 degrees) at 8 MPH (7 knots; 3.6 m/s)
Visibility: 6 sm ( 10 km)
Weather:-RA (light rain)
QC Flag:automated observation with no human augmentation
Text:K6B9 300635Z AUTO 03008KT 360V070 7SM -RA 03/03 A2980 RMK AO2
Temperature: 3.0°C ( 37°F)
Dewpoint: 3.0°C ( 37°F) [RH = 100%]
Pressure (altimeter):29.80 inches Hg (1009.2 mb)
Winds:from the NNE (30 degrees) at 9 MPH (8 knots; 4.1 m/s)
Visibility: 7 sm ( 11 km)
Weather:-RA (light rain)
QC Flag:automated observation with no human augmentation
Text:K6B9 300615Z AUTO VRB06G14KT 7SM -RA BKN008 OVC012 03/03 A2981 RMK AO2
Temperature: 3.0°C ( 37°F)
Dewpoint: 3.0°C ( 37°F) [RH = 100%]
Pressure (altimeter):29.81 inches Hg (1009.6 mb)
Winds:variable direction winds at 7 MPH (6 knots; 3.1 m/s) gusting to 16 MPH (14 knots; 7.2 m/s)
Visibility: 7 sm ( 11 km)
Ceiling:800 feet AGL
Clouds: broken clouds at 800 feet AGL, overcast cloud deck at 1200 feet AGL
Weather:-RA (light rain)
QC Flag:automated observation with no human augmentation
Text:K6B9 300555Z AUTO 01007KT 6SM -RA BKN007 OVC011 04/03 A2982 RMK AO2 P0007
Temperature: 4.0°C ( 39°F)
Dewpoint: 3.0°C ( 37°F) [RH = 93%]
Pressure (altimeter):29.82 inches Hg (1009.9 mb)
Winds:from the N (10 degrees) at 8 MPH (7 knots; 3.6 m/s)
Visibility: 6 sm ( 10 km)
Ceiling:700 feet AGL
Clouds: broken clouds at 700 feet AGL, overcast cloud deck at 1100 feet AGL
Weather:-RA (light rain)
QC Flag:automated observation with no human augmentation
Text:K6B9 300535Z AUTO 02008KT 6SM -RA BKN007 OVC012 04/04 A2980 RMK AO2
Temperature: 4.0°C ( 39°F)
Dewpoint: 4.0°C ( 39°F) [RH = 100%]
Pressure (altimeter):29.80 inches Hg (1009.2 mb)
Winds:from the NNE (20 degrees) at 9 MPH (8 knots; 4.1 m/s)
Visibility: 6 sm ( 10 km)
Ceiling:700 feet AGL
Clouds: broken clouds at 700 feet AGL, overcast cloud deck at 1200 feet AGL
Weather:-RA (light rain)
QC Flag:automated observation with no human augmentation
Text:K6B9 300515Z AUTO 02008KT 7SM -RA OVC006 04/04 A2980 RMK AO2
Temperature: 4.0°C ( 39°F)
Dewpoint: 4.0°C ( 39°F) [RH = 100%]
Pressure (altimeter):29.80 inches Hg (1009.2 mb)
Winds:from the NNE (20 degrees) at 9 MPH (8 knots; 4.1 m/s)
Visibility: 7 sm ( 11 km)
Ceiling:600 feet AGL
Clouds: overcast cloud deck at 600 feet AGL
Weather:-RA (light rain)
QC Flag:automated observation with no human augmentation